Gambell Airport Gambell US
ICAO: PAGM
IATA:
Category: Medium
Scheduled Services:

Elevation: 27 ft
TransAlt. 0 ft.

Airport Communications:
AWOS 3:125.9
ANCHORAGE CNTR:132.2
CTAF:122.7
NOME RDO:122
TWEB:36.9

PAGM Zoom In..

If you have problems with the map follow the link
https://www.worldairports.se/pages/airport.php?
ICAO=PAGM

Runways:

(A) RW 16 length 4499 ft width 96 ft
---- / hdg 160

(B) RW 34 length 4499 ft width 96 ft
---- / hdg 340

Location; PAGM
Day. 18 / Time. 10.56 Zulu
* Altimeter: 29.70
* Temperature: -07° c. -19.4°f.
* Wind from: 020° Speed 10 kn.
Dewpoint: -09° c.
Visibility: 10 Statute Miles.
Clouds: Overcast 2500 ft.
Conditions: Light Snow.

PAGM 181056Z AUTO 02010KT 10SM -SN OVC025 M07/M09 A2970 RMK AO2 SLP064 P0000 T10671094 FZRANO


Wind From 020°
Speed 10 kn.

 
 
jpsmedia worldairports.se 2020   terms of use